createdAt,value
2017-07-20T00:00:36.057Z,0
2017-07-20T00:01:36.391Z,0
2017-07-20T00:02:36.220Z,0
2017-07-20T00:03:36.130Z,0
2017-07-20T00:04:36.281Z,0
2017-07-20T00:05:36.183Z,0
2017-07-20T00:06:36.570Z,0
2017-07-20T00:07:36.561Z,0
2017-07-20T00:08:35.966Z,0
2017-07-20T00:09:36.426Z,0
2017-07-20T00:10:36.646Z,0
2017-07-20T00:11:36.675Z,0
2017-07-20T00:12:36.187Z,0
2017-07-20T00:13:36.411Z,0
2017-07-20T00:14:36.456Z,0
2017-07-20T00:15:36.782Z,0
2017-07-20T00:16:36.837Z,0
2017-07-20T00:17:36.523Z,0
2017-07-20T00:18:36.547Z,0
2017-07-20T00:19:37.096Z,0
2017-07-20T00:20:36.602Z,0
2017-07-20T00:21:37.173Z,0
2017-07-20T00:22:36.653Z,0
2017-07-20T00:23:37.001Z,0
2017-07-20T00:24:37.059Z,0
2017-07-20T00:25:37.059Z,0
2017-07-20T00:26:37.082Z,0
2017-07-20T00:27:37.120Z,0
2017-07-20T00:28:37.146Z,0
2017-07-20T00:29:37.171Z,0
2017-07-20T00:30:36.593Z,0
2017-07-20T00:31:36.905Z,0
2017-07-20T00:32:37.255Z,0
2017-07-20T00:33:37.277Z,0
2017-07-20T00:34:37.307Z,0
2017-07-20T00:35:37.358Z,0
2017-07-20T00:36:37.432Z,0
2017-07-20T00:37:37.445Z,0
2017-07-20T00:38:37.418Z,0
2017-07-20T00:39:37.447Z,0
2017-07-20T00:40:37.236Z,0
2017-07-20T00:41:37.500Z,0
2017-07-20T00:42:37.311Z,0
2017-07-20T00:43:37.565Z,0
2017-07-20T00:44:37.275Z,0
2017-07-20T00:45:37.613Z,0
2017-07-20T00:46:37.331Z,0
2017-07-20T00:47:37.349Z,0
2017-07-20T00:48:37.388Z,0
2017-07-20T00:49:37.393Z,0
2017-07-20T00:50:37.749Z,0
2017-07-20T00:51:37.780Z,0
2017-07-20T00:52:37.801Z,0
2017-07-20T00:53:37.828Z,0
2017-07-20T00:54:37.849Z,0
2017-07-20T00:55:37.888Z,0
2017-07-20T00:56:37.903Z,0
2017-07-20T00:57:37.933Z,0
2017-07-20T00:58:37.952Z,0
2017-07-20T00:59:37.994Z,0
2017-07-20T01:00:38.028Z,0
2017-07-20T01:01:38.048Z,0
2017-07-20T01:02:38.087Z,0
2017-07-20T01:03:38.089Z,0
2017-07-20T01:04:38.123Z,0
2017-07-20T01:05:38.149Z,0
2017-07-20T01:06:38.200Z,0
2017-07-20T01:07:37.890Z,0
2017-07-20T01:08:37.914Z,0
2017-07-20T01:09:38.036Z,0
2017-07-20T01:10:37.995Z,0
2017-07-20T01:11:37.989Z,0
2017-07-20T01:12:37.698Z,0
2017-07-20T01:13:38.165Z,0
2017-07-20T01:14:38.079Z,0
2017-07-20T01:15:38.434Z,0
2017-07-20T01:16:38.452Z,0
2017-07-20T01:17:38.493Z,0
2017-07-20T01:18:38.696Z,0
2017-07-20T01:19:38.535Z,0
2017-07-20T01:20:38.655Z,0
2017-07-20T01:21:38.660Z,0
2017-07-20T01:22:38.630Z,0
2017-07-20T01:23:38.336Z,0
2017-07-20T01:24:38.738Z,0
2017-07-20T01:25:38.736Z,0
2017-07-20T01:26:38.724Z,0
2017-07-20T01:27:38.797Z,0
2017-07-20T01:28:38.793Z,0
2017-07-20T01:29:38.803Z,0
2017-07-20T01:30:38.828Z,0
2017-07-20T01:31:38.960Z,0
2017-07-20T01:32:38.711Z,0
2017-07-20T01:33:38.927Z,0
2017-07-20T01:34:38.924Z,0
2017-07-20T01:35:39.058Z,0
2017-07-20T01:36:38.991Z,0
2017-07-20T01:37:39.010Z,0
2017-07-20T01:38:39.152Z,0
2017-07-20T01:39:39.201Z,0
2017-07-20T01:40:39.177Z,0
2017-07-20T01:41:39.186Z,0
2017-07-20T01:42:39.153Z,0
2017-07-20T01:43:38.867Z,0
2017-07-20T01:44:39.306Z,0
2017-07-20T01:45:39.241Z,0
2017-07-20T01:46:39.257Z,0
2017-07-20T01:47:39.145Z,0
2017-07-20T01:48:39.095Z,0
2017-07-20T01:49:39.057Z,0
2017-07-20T01:50:39.524Z,0
2017-07-20T01:51:39.528Z,0
2017-07-20T01:52:39.097Z,0
2017-07-20T01:53:39.113Z,0
2017-07-20T01:54:39.166Z,0
2017-07-20T01:55:39.636Z,0
2017-07-20T01:56:39.210Z,0
2017-07-20T01:57:39.548Z,0
2017-07-20T01:58:39.333Z,0
2017-07-20T01:59:39.611Z,0
2017-07-20T02:00:39.629Z,0
2017-07-20T02:01:39.665Z,0
2017-07-20T02:02:39.357Z,0
2017-07-20T02:03:39.722Z,0
2017-07-20T02:04:39.417Z,0
2017-07-20T02:05:39.766Z,0
2017-07-20T02:06:39.894Z,0
2017-07-20T02:07:39.509Z,0
2017-07-20T02:08:39.525Z,0
2017-07-20T02:09:39.867Z,0
2017-07-20T02:10:39.913Z,0
2017-07-20T02:11:39.619Z,0
2017-07-20T02:12:39.950Z,0
2017-07-20T02:13:39.985Z,0
2017-07-20T02:14:40.011Z,0
2017-07-20T02:15:40.036Z,0
2017-07-20T02:16:40.182Z,0
2017-07-20T02:17:40.099Z,0
2017-07-20T02:18:40.116Z,0
2017-07-20T02:19:40.164Z,0
2017-07-20T02:20:40.160Z,0
2017-07-20T02:21:40.190Z,0
2017-07-20T02:22:39.899Z,0
2017-07-20T02:23:40.250Z,0
2017-07-20T02:24:40.275Z,0
2017-07-20T02:25:40.296Z,0
2017-07-20T02:26:39.994Z,0
2017-07-20T02:27:40.359Z,0
2017-07-20T02:28:40.487Z,0
2017-07-20T02:29:40.173Z,0
2017-07-20T02:30:40.408Z,0
2017-07-20T02:31:40.126Z,0
2017-07-20T02:32:40.503Z,0
2017-07-20T02:33:40.989Z,0
2017-07-20T02:34:40.548Z,0
2017-07-20T02:35:40.573Z,0
2017-07-20T02:36:40.596Z,0
2017-07-20T02:37:40.296Z,0
2017-07-20T02:38:40.643Z,0
2017-07-20T02:39:40.692Z,0
2017-07-20T02:40:40.645Z,0
2017-07-20T02:41:40.651Z,0
2017-07-20T02:42:40.822Z,0
2017-07-20T02:43:40.568Z,0
2017-07-20T02:44:40.745Z,0
2017-07-20T02:45:40.767Z,0
2017-07-20T02:46:40.808Z,0
2017-07-20T02:47:40.976Z,0
2017-07-20T02:48:40.614Z,0
2017-07-20T02:49:40.867Z,0
2017-07-20T02:50:40.903Z,0
2017-07-20T02:51:40.925Z,0
2017-07-20T02:52:40.948Z,0
2017-07-20T02:53:40.359Z,0
2017-07-20T02:54:41.013Z,0
2017-07-20T02:55:41.026Z,0
2017-07-20T02:56:40.746Z,4
2017-07-20T02:57:41.072Z,4
2017-07-20T02:58:40.779Z,4
2017-07-20T02:59:41.130Z,4
2017-07-20T03:00:40.835Z,0
2017-07-20T03:01:41.186Z,4
2017-07-20T03:02:41.229Z,4
2017-07-20T03:03:41.239Z,4
2017-07-20T03:04:41.270Z,8
2017-07-20T03:05:41.308Z,4
2017-07-20T03:06:41.306Z,4
2017-07-20T03:07:41.367Z,8
2017-07-20T03:08:41.057Z,8
2017-07-20T03:09:41.075Z,8
2017-07-20T03:10:41.099Z,8
2017-07-20T03:11:41.440Z,12
2017-07-20T03:12:41.538Z,12
2017-07-20T03:13:41.505Z,12
2017-07-20T03:14:41.522Z,12
2017-07-20T03:15:41.547Z,12
2017-07-20T03:16:41.568Z,16
2017-07-20T03:17:41.601Z,16
2017-07-20T03:18:41.623Z,16
2017-07-20T03:19:41.659Z,16
2017-07-20T03:20:41.040Z,20
2017-07-20T03:21:41.700Z,24
2017-07-20T03:22:41.427Z,24
2017-07-20T03:23:41.781Z,24
2017-07-20T03:24:41.483Z,28
2017-07-20T03:25:40.882Z,32
2017-07-20T03:26:41.938Z,32
2017-07-20T03:27:41.562Z,36
2017-07-20T03:28:42.086Z,36
2017-07-20T03:29:41.945Z,40
2017-07-20T03:30:42.049Z,40
2017-07-20T03:31:41.312Z,40
2017-07-20T03:32:42.089Z,44
2017-07-20T03:33:42.037Z,44
2017-07-20T03:34:41.737Z,48
2017-07-20T03:35:42.097Z,52
2017-07-20T03:36:42.092Z,52
2017-07-20T03:37:42.135Z,56
2017-07-20T03:38:42.175Z,56
2017-07-20T03:39:42.168Z,60
2017-07-20T03:40:42.214Z,64
2017-07-20T03:41:42.222Z,68
2017-07-20T03:42:41.655Z,72
2017-07-20T03:43:42.287Z,76
2017-07-20T03:44:42.302Z,80
2017-07-20T03:45:42.006Z,84
2017-07-20T03:46:42.356Z,88
2017-07-20T03:47:42.378Z,88
2017-07-20T03:48:42.145Z,92
2017-07-20T03:49:42.131Z,100
2017-07-20T03:50:41.826Z,104
2017-07-20T03:51:42.486Z,112
2017-07-20T03:52:42.507Z,116
2017-07-20T03:53:42.568Z,120
2017-07-20T03:54:42.759Z,124
2017-07-20T03:55:42.582Z,128
2017-07-20T03:56:42.616Z,136
2017-07-20T03:57:42.324Z,140
2017-07-20T03:58:42.358Z,144
2017-07-20T03:59:42.704Z,148
2017-07-20T04:00:42.739Z,152
2017-07-20T04:01:42.430Z,156
2017-07-20T04:02:42.505Z,160
2017-07-20T04:03:42.798Z,164
2017-07-20T04:04:42.831Z,168
2017-07-20T04:05:42.972Z,176
2017-07-20T04:06:42.560Z,180
2017-07-20T04:07:42.581Z,188
2017-07-20T04:08:42.983Z,192
2017-07-20T04:09:42.503Z,196
2017-07-20T04:10:42.664Z,200
2017-07-20T04:11:43.113Z,212
2017-07-20T04:12:43.049Z,220
2017-07-20T04:13:42.773Z,232
2017-07-20T04:14:43.173Z,244
2017-07-20T04:15:42.877Z,256
2017-07-20T04:16:43.254Z,264
2017-07-20T04:17:43.130Z,272
2017-07-20T04:18:42.547Z,280
2017-07-20T04:19:42.611Z,284
2017-07-20T04:20:43.237Z,284
2017-07-20T04:21:43.319Z,288
2017-07-20T04:22:43.434Z,292
2017-07-20T04:23:43.434Z,296
2017-07-20T04:24:43.304Z,296
2017-07-20T04:25:43.476Z,300
2017-07-20T04:26:43.435Z,304
2017-07-20T04:27:43.419Z,296
2017-07-20T04:28:43.131Z,288
2017-07-20T04:29:43.508Z,276
2017-07-20T04:30:42.991Z,272
2017-07-20T04:31:43.522Z,268
2017-07-20T04:32:43.531Z,272
2017-07-20T04:33:43.587Z,280
2017-07-20T04:34:43.586Z,300
2017-07-20T04:35:43.619Z,324
2017-07-20T04:36:43.320Z,356
2017-07-20T04:37:43.458Z,384
2017-07-20T04:38:43.375Z,420
2017-07-20T04:39:43.497Z,444
2017-07-20T04:40:43.968Z,444
2017-07-20T04:41:43.213Z,428
2017-07-20T04:42:43.820Z,408
2017-07-20T04:43:43.816Z,380
2017-07-20T04:44:43.162Z,356
2017-07-20T04:45:43.555Z,328
2017-07-20T04:46:43.895Z,316
2017-07-20T04:47:43.917Z,304
2017-07-20T04:48:43.951Z,308
2017-07-20T04:49:43.650Z,320
2017-07-20T04:50:43.998Z,332
2017-07-20T04:51:43.706Z,344
2017-07-20T04:52:44.067Z,356
2017-07-20T04:53:44.087Z,360
2017-07-20T04:54:44.100Z,360
2017-07-20T04:55:44.136Z,368
2017-07-20T04:56:44.150Z,364
2017-07-20T04:57:44.185Z,360
2017-07-20T04:58:43.566Z,364
2017-07-20T04:59:43.926Z,360
2017-07-20T05:00:43.937Z,360
2017-07-20T05:01:44.282Z,364
2017-07-20T05:02:43.546Z,364
2017-07-20T05:03:44.327Z,360
2017-07-20T05:04:44.360Z,356
2017-07-20T05:05:44.383Z,360
2017-07-20T05:06:44.228Z,360
2017-07-20T05:07:44.442Z,356
2017-07-20T05:08:43.831Z,344
2017-07-20T05:09:44.573Z,336
2017-07-20T05:10:44.413Z,340
2017-07-20T05:11:44.726Z,352
2017-07-20T05:12:44.736Z,360
2017-07-20T05:13:43.977Z,380
2017-07-20T05:14:44.611Z,392
2017-07-20T05:15:44.657Z,412
2017-07-20T05:16:44.032Z,428
2017-07-20T05:17:44.705Z,452
2017-07-20T05:18:44.726Z,480
2017-07-20T05:19:44.742Z,512
2017-07-20T05:20:44.454Z,544
2017-07-20T05:21:45.099Z,564
2017-07-20T05:22:44.655Z,572
2017-07-20T05:23:44.961Z,584
2017-07-20T05:24:44.962Z,592
2017-07-20T05:25:44.979Z,564
2017-07-20T05:26:44.828Z,532
2017-07-20T05:27:45.151Z,500
2017-07-20T05:28:45.168Z,480
2017-07-20T05:29:45.168Z,476
2017-07-20T05:30:44.847Z,464
2017-07-20T05:31:45.164Z,456
2017-07-20T05:32:44.752Z,460
2017-07-20T05:33:45.097Z,468
2017-07-20T05:34:45.127Z,472
2017-07-20T05:35:44.858Z,468
2017-07-20T05:36:45.174Z,452
2017-07-20T05:37:45.204Z,436
2017-07-20T05:38:45.231Z,420
2017-07-20T05:39:45.089Z,412
2017-07-20T05:40:45.272Z,408
2017-07-20T05:41:45.376Z,412
2017-07-20T05:42:45.273Z,416
2017-07-20T05:43:45.360Z,428
2017-07-20T05:44:45.377Z,444
2017-07-20T05:45:45.493Z,452
2017-07-20T05:46:45.436Z,448
2017-07-20T05:47:45.138Z,448
2017-07-20T05:48:45.191Z,464
2017-07-20T05:49:45.521Z,476
2017-07-20T05:50:45.535Z,488
2017-07-20T05:51:45.560Z,496
2017-07-20T05:52:45.585Z,504
2017-07-20T05:53:45.290Z,520
2017-07-20T05:54:45.330Z,528
2017-07-20T05:55:45.663Z,524
2017-07-20T05:56:45.686Z,500
2017-07-20T05:57:45.395Z,480
2017-07-20T05:58:45.739Z,464
2017-07-20T05:59:45.448Z,452
2017-07-20T06:00:45.800Z,448
2017-07-20T06:01:45.820Z,448
2017-07-20T06:02:45.867Z,448
2017-07-20T06:03:45.870Z,452
2017-07-20T06:04:45.894Z,444
2017-07-20T06:05:45.918Z,444
2017-07-20T06:06:45.948Z,436
2017-07-20T06:07:45.970Z,428
2017-07-20T06:08:45.995Z,420
2017-07-20T06:09:45.712Z,412
2017-07-20T06:10:46.142Z,412
2017-07-20T06:11:46.075Z,408
2017-07-20T06:12:46.110Z,408
2017-07-20T06:13:45.814Z,408
2017-07-20T06:14:46.164Z,408
2017-07-20T06:15:45.869Z,404
2017-07-20T06:16:45.571Z,408
2017-07-20T06:17:45.919Z,408
2017-07-20T06:18:45.933Z,408
2017-07-20T06:19:46.280Z,416
2017-07-20T06:20:45.983Z,424
2017-07-20T06:21:46.328Z,424
2017-07-20T06:22:46.381Z,432
2017-07-20T06:23:46.075Z,428
2017-07-20T06:24:46.088Z,428
2017-07-20T06:25:46.455Z,436
2017-07-20T06:26:46.476Z,436
2017-07-20T06:27:46.598Z,440
2017-07-20T06:28:46.507Z,444
2017-07-20T06:29:46.226Z,448
2017-07-20T06:30:46.242Z,452
2017-07-20T06:31:46.640Z,452
2017-07-20T06:32:46.640Z,452
2017-07-20T06:33:46.640Z,452
2017-07-20T06:34:46.781Z,456
2017-07-20T06:35:46.807Z,464
2017-07-20T06:36:46.713Z,468
2017-07-20T06:37:46.109Z,464
2017-07-20T06:38:46.773Z,464
2017-07-20T06:39:46.801Z,468
2017-07-20T06:40:46.825Z,468
2017-07-20T06:41:46.844Z,468
2017-07-20T06:42:46.556Z,476
2017-07-20T06:43:46.892Z,480
2017-07-20T06:44:46.613Z,488
2017-07-20T06:45:46.955Z,496
2017-07-20T06:46:46.986Z,504
2017-07-20T06:47:46.687Z,508
2017-07-20T06:48:47.028Z,512
2017-07-20T06:49:47.058Z,516
2017-07-20T06:50:46.447Z,508
2017-07-20T06:51:47.105Z,504
2017-07-20T06:52:46.822Z,500
2017-07-20T06:53:47.152Z,500
2017-07-20T06:54:46.867Z,496
2017-07-20T06:55:46.883Z,492
2017-07-20T06:56:47.241Z,492
2017-07-20T06:57:47.256Z,492
2017-07-20T06:58:46.659Z,488
2017-07-20T06:59:46.683Z,492
2017-07-20T07:00:47.347Z,492
2017-07-20T07:01:47.382Z,492
2017-07-20T07:02:47.417Z,492
2017-07-20T07:03:47.417Z,492
2017-07-20T07:04:47.457Z,496
2017-07-20T07:05:46.838Z,496
2017-07-20T07:06:47.181Z,500
2017-07-20T07:07:46.889Z,504
2017-07-20T07:08:46.926Z,508
2017-07-20T07:09:47.263Z,520
2017-07-20T07:10:47.279Z,536
2017-07-20T07:11:47.309Z,560
2017-07-20T07:12:47.338Z,588
2017-07-20T07:13:47.364Z,596
2017-07-20T07:14:47.383Z,600
2017-07-20T07:15:47.726Z,608
2017-07-20T07:16:47.122Z,600
2017-07-20T07:17:47.479Z,580
2017-07-20T07:18:47.485Z,564
2017-07-20T07:19:47.524Z,556
2017-07-20T07:20:47.540Z,544
2017-07-20T07:21:47.247Z,552
2017-07-20T07:22:47.597Z,568
2017-07-20T07:23:47.940Z,612
2017-07-20T07:24:47.975Z,688
2017-07-20T07:25:47.996Z,816
2017-07-20T07:26:47.714Z,992
2017-07-20T07:27:48.034Z,1180
2017-07-20T07:28:47.432Z,1340
2017-07-20T07:29:48.089Z,1488
2017-07-20T07:30:47.491Z,1592
2017-07-20T07:31:48.140Z,1688
2017-07-20T07:32:48.174Z,1760
2017-07-20T07:33:48.203Z,1776
2017-07-20T07:34:47.903Z,1744
2017-07-20T07:35:48.258Z,1588
2017-07-20T07:36:47.965Z,1368
2017-07-20T07:37:47.985Z,1144
2017-07-20T07:38:48.333Z,956
2017-07-20T07:39:48.362Z,900
2017-07-20T07:40:48.422Z,964
2017-07-20T07:41:48.404Z,1104
2017-07-20T07:42:48.431Z,1240
2017-07-20T07:43:48.464Z,1300
2017-07-20T07:44:48.178Z,1276
2017-07-20T07:45:48.526Z,1196
2017-07-20T07:46:48.550Z,1112
2017-07-20T07:47:48.574Z,1128
2017-07-20T07:48:48.598Z,1232
2017-07-20T07:49:48.627Z,1404
2017-07-20T07:50:48.337Z,1516
2017-07-20T07:51:48.691Z,1540
2017-07-20T07:52:48.074Z,1576
2017-07-20T07:53:48.107Z,1700
2017-07-20T07:54:48.754Z,1908
2017-07-20T07:55:48.786Z,2116
2017-07-20T07:56:48.488Z,2236
2017-07-20T07:57:48.521Z,2300
2017-07-20T07:58:48.652Z,2352
2017-07-20T07:59:48.679Z,2324
2017-07-20T08:00:49.130Z,2220
2017-07-20T08:01:49.132Z,2052
2017-07-20T08:02:48.811Z,1948
2017-07-20T08:03:48.827Z,1972
2017-07-20T08:04:48.817Z,2156
2017-07-20T08:05:49.147Z,2408
2017-07-20T08:06:49.181Z,2472
2017-07-20T08:07:48.543Z,2452
2017-07-20T08:08:49.208Z,2372
2017-07-20T08:09:48.881Z,2376
2017-07-20T08:10:48.579Z,2392
2017-07-20T08:11:48.915Z,2420
2017-07-20T08:12:49.410Z,2432
2017-07-20T08:13:49.268Z,2440
2017-07-20T08:14:48.984Z,2484
2017-07-20T08:15:49.339Z,2552
2017-07-20T08:16:49.034Z,2560
2017-07-20T08:17:49.073Z,2532
2017-07-20T08:18:49.097Z,2508
2017-07-20T08:19:49.126Z,2452
2017-07-20T08:20:49.467Z,2460
2017-07-20T08:21:49.490Z,2484
2017-07-20T08:22:49.208Z,2452
2017-07-20T08:23:49.557Z,2452
2017-07-20T08:24:49.582Z,2488
2017-07-20T08:25:49.288Z,2528
2017-07-20T08:26:49.641Z,2580
2017-07-20T08:27:49.672Z,2524
2017-07-20T08:28:49.691Z,2472
2017-07-20T08:29:49.714Z,2484
2017-07-20T08:30:49.745Z,2440
2017-07-20T08:31:49.461Z,2464
2017-07-20T08:32:49.495Z,2448
2017-07-20T08:33:49.195Z,2468
2017-07-20T08:34:49.878Z,2484
2017-07-20T08:35:49.883Z,2492
2017-07-20T08:36:49.608Z,2440
2017-07-20T08:37:49.641Z,2468
2017-07-20T08:38:49.343Z,2544
2017-07-20T08:39:49.690Z,2556
2017-07-20T08:40:49.715Z,2532
2017-07-20T08:41:50.055Z,2500
2017-07-20T08:42:50.089Z,2528
2017-07-20T08:43:49.799Z,2516
2017-07-20T08:44:50.140Z,2516
2017-07-20T08:45:50.170Z,2468
2017-07-20T08:46:50.203Z,2452
2017-07-20T08:47:49.909Z,2548
2017-07-20T08:48:49.966Z,2488
2017-07-20T08:49:49.973Z,2416
2017-07-20T08:50:50.317Z,2380
2017-07-20T08:51:50.344Z,2284
2017-07-20T08:52:50.051Z,2196
2017-07-20T08:53:49.770Z,2068
2017-07-20T08:54:50.439Z,2084
2017-07-20T08:55:50.460Z,2200
2017-07-20T08:56:50.168Z,2196
2017-07-20T08:57:50.201Z,2080
2017-07-20T08:58:50.561Z,1816
2017-07-20T08:59:50.575Z,1440
2017-07-20T09:00:50.606Z,1240
2017-07-20T09:01:50.629Z,1244
2017-07-20T09:02:50.350Z,1360
2017-07-20T09:03:50.693Z,1312
2017-07-20T09:04:50.402Z,1396
2017-07-20T09:05:50.112Z,1344
2017-07-20T09:06:50.774Z,1492
2017-07-20T09:07:50.495Z,1580
2017-07-20T09:08:50.837Z,1756
2017-07-20T09:09:50.868Z,2008
2017-07-20T09:10:50.911Z,2220
2017-07-20T09:11:50.613Z,2252
2017-07-20T09:12:50.638Z,2176
2017-07-20T09:13:50.982Z,2120
2017-07-20T09:14:51.015Z,2200
2017-07-20T09:15:51.035Z,2288
2017-07-20T09:16:51.062Z,2532
2017-07-20T09:17:50.791Z,2764
2017-07-20T09:18:50.813Z,2648
2017-07-20T09:19:50.840Z,2720
2017-07-20T09:20:50.554Z,3076
2017-07-20T09:21:50.598Z,2980
2017-07-20T09:22:50.934Z,2964
2017-07-20T09:23:50.957Z,3216
2017-07-20T09:24:51.390Z,3416
2017-07-20T09:25:51.386Z,3492
2017-07-20T09:26:51.047Z,3300
2017-07-20T09:27:51.078Z,3196
2017-07-20T09:28:51.106Z,3144
2017-07-20T09:29:51.134Z,3028
2017-07-20T09:30:51.480Z,3020
2017-07-20T09:31:51.507Z,3048
2017-07-20T09:32:51.230Z,3052
2017-07-20T09:33:51.600Z,3032
2017-07-20T09:34:51.283Z,2872
2017-07-20T09:35:51.308Z,3016
2017-07-20T09:36:51.342Z,3500
2017-07-20T09:37:51.694Z,3436
2017-07-20T09:38:51.396Z,3508
2017-07-20T09:39:51.753Z,3624
2017-07-20T09:40:51.141Z,3612
2017-07-20T09:41:51.800Z,3532
2017-07-20T09:42:51.841Z,3428
2017-07-20T09:43:51.563Z,3344
2017-07-20T09:44:51.895Z,3216
2017-07-20T09:45:51.943Z,2932
2017-07-20T09:46:51.642Z,2360
2017-07-20T09:47:51.667Z,2232
2017-07-20T09:48:51.711Z,2300
2017-07-20T09:49:51.732Z,2240
2017-07-20T09:50:51.771Z,1920
2017-07-20T09:51:52.102Z,2032
2017-07-20T09:52:52.142Z,2180
2017-07-20T09:53:51.556Z,2188
2017-07-20T09:54:52.191Z,2052
2017-07-20T09:55:51.912Z,1988
2017-07-20T09:56:52.362Z,2008
2017-07-20T09:57:52.362Z,2452
2017-07-20T09:58:52.361Z,2740
2017-07-20T09:59:52.363Z,3448
2017-07-20T10:00:51.748Z,3312
2017-07-20T10:01:52.530Z,3976
2017-07-20T10:02:52.555Z,3924
2017-07-20T10:03:52.528Z,3616
2017-07-20T10:04:52.524Z,3152
2017-07-20T10:05:52.664Z,2796
2017-07-20T10:06:52.646Z,3148
2017-07-20T10:07:52.671Z,3064
2017-07-20T10:08:52.371Z,2696
2017-07-20T10:09:52.673Z,2456
2017-07-20T10:10:52.053Z,2152
2017-07-20T10:11:52.719Z,2020
2017-07-20T10:12:52.120Z,2604
2017-07-20T10:13:52.789Z,2772
2017-07-20T10:14:52.884Z,2376
2017-07-20T10:15:52.646Z,2600
2017-07-20T10:16:52.880Z,2836
2017-07-20T10:17:52.671Z,2860
2017-07-20T10:18:52.941Z,2760
2017-07-20T10:19:52.965Z,2648
2017-07-20T10:20:52.687Z,2972
2017-07-20T10:21:53.029Z,3156
2017-07-20T10:22:52.747Z,3416
2017-07-20T10:23:53.096Z,2932
2017-07-20T10:24:52.815Z,2696
2017-07-20T10:25:53.160Z,2144
2017-07-20T10:26:52.879Z,2072
2017-07-20T10:27:52.904Z,2972
2017-07-20T10:28:53.252Z,3236
2017-07-20T10:29:53.285Z,3072
2017-07-20T10:30:53.007Z,3220
2017-07-20T10:31:53.023Z,3712
2017-07-20T10:32:53.384Z,4020
2017-07-20T10:33:53.409Z,4052
2017-07-20T10:34:52.816Z,3664
2017-07-20T10:35:53.157Z,3020
2017-07-20T10:36:53.510Z,3220
2017-07-20T10:37:53.527Z,3212
2017-07-20T10:38:53.253Z,3976
2017-07-20T10:39:53.593Z,4004
2017-07-20T10:40:53.630Z,3800
2017-07-20T10:41:53.659Z,4176
2017-07-20T10:42:53.688Z,3052
2017-07-20T10:43:53.412Z,2000
2017-07-20T10:44:53.444Z,1924
2017-07-20T10:45:53.788Z,2768
2017-07-20T10:46:53.821Z,3224
2017-07-20T10:47:53.858Z,3224
2017-07-20T10:48:53.893Z,3192
2017-07-20T10:49:53.931Z,2876
2017-07-20T10:50:53.634Z,2604
2017-07-20T10:51:53.976Z,2536
2017-07-20T10:52:53.704Z,2652
2017-07-20T10:53:53.101Z,2652
2017-07-20T10:54:54.078Z,3228
2017-07-20T10:55:53.562Z,3596
2017-07-20T10:56:54.161Z,3660
2017-07-20T10:57:54.178Z,3004
2017-07-20T10:58:53.914Z,2676
2017-07-20T10:59:54.253Z,3088
2017-07-20T11:00:54.264Z,3752
2017-07-20T11:01:54.301Z,4032
2017-07-20T11:02:54.337Z,3560
2017-07-20T11:03:54.377Z,3288
2017-07-20T11:04:54.106Z,3752
2017-07-20T11:05:54.441Z,3864
2017-07-20T11:06:54.461Z,4056
2017-07-20T11:07:54.512Z,3960
2017-07-20T11:08:54.544Z,4084
2017-07-20T11:09:54.558Z,4152
2017-07-20T11:10:54.297Z,4036
2017-07-20T11:11:54.308Z,4012
2017-07-20T11:12:54.658Z,4224
2017-07-20T11:13:54.376Z,4336
2017-07-20T11:14:54.731Z,4332
2017-07-20T11:15:54.437Z,4324
2017-07-20T11:16:54.477Z,4124
2017-07-20T11:17:54.835Z,3976
2017-07-20T11:18:54.853Z,3980
2017-07-20T11:19:54.576Z,4004
2017-07-20T11:20:54.915Z,3912
2017-07-20T11:21:54.967Z,3632
2017-07-20T11:22:54.994Z,3604
2017-07-20T11:23:54.714Z,3804
2017-07-20T11:24:55.055Z,3904
2017-07-20T11:25:55.088Z,3796
2017-07-20T11:26:55.122Z,3716
2017-07-20T11:27:54.842Z,3400
2017-07-20T11:28:54.877Z,3048
2017-07-20T11:29:55.215Z,2936
2017-07-20T11:30:54.929Z,2900
2017-07-20T11:31:54.973Z,2776
2017-07-20T11:32:54.997Z,2800
2017-07-20T11:33:55.400Z,2788
2017-07-20T11:34:55.410Z,2964
2017-07-20T11:35:55.100Z,3504
2017-07-20T11:36:55.442Z,3708
2017-07-20T11:37:55.166Z,3880
2017-07-20T11:38:55.634Z,3880
2017-07-20T11:39:55.487Z,3420
2017-07-20T11:40:55.670Z,3236
2017-07-20T11:41:55.711Z,3020
2017-07-20T11:42:55.765Z,2964
2017-07-20T11:43:55.845Z,3000
2017-07-20T11:44:55.519Z,3020
2017-07-20T11:45:55.842Z,2888
2017-07-20T11:46:55.660Z,2704
2017-07-20T11:47:55.980Z,2540
2017-07-20T11:48:55.635Z,2472
2017-07-20T11:49:55.653Z,2488
2017-07-20T11:50:55.986Z,2608
2017-07-20T11:51:55.839Z,2548
2017-07-20T11:52:56.054Z,2260
2017-07-20T11:53:56.053Z,1996
2017-07-20T11:54:55.737Z,1720
2017-07-20T11:55:56.079Z,1736
2017-07-20T11:56:55.897Z,1836
2017-07-20T11:57:55.945Z,1788
2017-07-20T11:58:56.176Z,1700
2017-07-20T11:59:56.269Z,1676
2017-07-20T12:00:56.266Z,1588
2017-07-20T12:01:55.950Z,1500
2017-07-20T12:02:56.373Z,1424
2017-07-20T12:03:56.393Z,1452
2017-07-20T12:04:56.411Z,1512
2017-07-20T12:05:56.089Z,1584
2017-07-20T12:06:56.253Z,1668
2017-07-20T12:07:56.262Z,1832
2017-07-20T12:08:55.873Z,2068
2017-07-20T12:09:56.217Z,2312
2017-07-20T12:10:56.349Z,2768
2017-07-20T12:11:56.654Z,3568
2017-07-20T12:12:56.405Z,4216
2017-07-20T12:13:56.434Z,4488
2017-07-20T12:14:56.696Z,4608
2017-07-20T12:15:56.732Z,4628
2017-07-20T12:16:56.766Z,3752
2017-07-20T12:17:56.489Z,3300
2017-07-20T12:18:56.309Z,3756
2017-07-20T12:19:56.865Z,5068
2017-07-20T12:20:56.895Z,4980
2017-07-20T12:21:56.922Z,5096
2017-07-20T12:22:56.667Z,4660
2017-07-20T12:23:56.419Z,4268
2017-07-20T12:24:56.486Z,4044
2017-07-20T12:25:56.750Z,3816
2017-07-20T12:26:56.779Z,3104
2017-07-20T12:27:57.125Z,2520
2017-07-20T12:28:56.206Z,2984
2017-07-20T12:29:56.876Z,2660
2017-07-20T12:30:57.226Z,2540
2017-07-20T12:31:57.259Z,2568
2017-07-20T12:32:57.291Z,3120
2017-07-20T12:33:57.327Z,3048
2017-07-20T12:34:57.354Z,2012
2017-07-20T12:35:57.085Z,2204
2017-07-20T12:36:57.417Z,2436
2017-07-20T12:37:57.449Z,3012
2017-07-20T12:38:57.168Z,4064
2017-07-20T12:39:57.523Z,4452
2017-07-20T12:40:57.560Z,3992
2017-07-20T12:41:57.585Z,3236
2017-07-20T12:42:57.630Z,2648
2017-07-20T12:43:57.343Z,3708
2017-07-20T12:44:57.365Z,5000
2017-07-20T12:45:57.409Z,3612
2017-07-20T12:46:57.751Z,3000
2017-07-20T12:47:57.465Z,2512
2017-07-20T12:48:57.502Z,2304
2017-07-20T12:49:57.525Z,2656
2017-07-20T12:50:57.883Z,3552
2017-07-20T12:51:57.598Z,3644
2017-07-20T12:52:57.637Z,3452
2017-07-20T12:53:57.977Z,3004
2017-07-20T12:54:58.031Z,2068
2017-07-20T12:55:57.732Z,1848
2017-07-20T12:56:58.165Z,1840
2017-07-20T12:57:58.185Z,2092
2017-07-20T12:58:58.203Z,2464
2017-07-20T12:59:57.858Z,2736
2017-07-20T13:00:58.322Z,2628
2017-07-20T13:01:58.319Z,2696
2017-07-20T13:02:58.300Z,2448
2017-07-20T13:03:58.423Z,2204
2017-07-20T13:04:58.140Z,2436
2017-07-20T13:05:58.165Z,3152
2017-07-20T13:06:58.184Z,3676
2017-07-20T13:07:58.503Z,4796
2017-07-20T13:08:58.512Z,3744
2017-07-20T13:09:58.514Z,2852
2017-07-20T13:10:57.912Z,2992
2017-07-20T13:11:57.947Z,2156
2017-07-20T13:12:58.612Z,1380
2017-07-20T13:13:58.645Z,1512
2017-07-20T13:14:58.676Z,1676
2017-07-20T13:15:58.725Z,1752
2017-07-20T13:16:58.741Z,1584
2017-07-20T13:17:58.778Z,1852
2017-07-20T13:18:58.808Z,2800
2017-07-20T13:19:58.850Z,2720
2017-07-20T13:20:59.078Z,2768
2017-07-20T13:21:58.598Z,2788
2017-07-20T13:22:58.336Z,4080
2017-07-20T13:23:58.658Z,4644
2017-07-20T13:24:58.691Z,5404
2017-07-20T13:25:58.763Z,5748
2017-07-20T13:26:58.756Z,4716
2017-07-20T13:27:58.811Z,3728
2017-07-20T13:28:59.235Z,2692
2017-07-20T13:29:59.273Z,2916
2017-07-20T13:30:59.320Z,2952
2017-07-20T13:31:58.922Z,2568
2017-07-20T13:32:59.326Z,2648
2017-07-20T13:33:59.339Z,2380
2017-07-20T13:34:59.344Z,2408
2017-07-20T13:35:59.486Z,2716
2017-07-20T13:36:59.422Z,3308
2017-07-20T13:37:59.234Z,4364
2017-07-20T13:38:59.242Z,3672
2017-07-20T13:39:59.503Z,3188
2017-07-20T13:40:59.531Z,4852
2017-07-20T13:41:59.573Z,3948
2017-07-20T13:42:59.601Z,4260
2017-07-20T13:43:59.633Z,2904
2017-07-20T13:44:59.677Z,2372
2017-07-20T13:45:59.711Z,2376
2017-07-20T13:46:59.765Z,2732
2017-07-20T13:47:59.776Z,2852